createdAt,value
2023-05-22T00:33:07.891Z,10.15
2023-05-22T00:35:11.120Z,9.57
2023-05-22T00:36:13.212Z,11.25
2023-05-22T00:37:14.906Z,10.50
2023-05-22T00:38:32.956Z,11.10
2023-05-22T00:39:34.692Z,11.00
2023-05-22T00:40:36.505Z,9.23
2023-05-22T00:41:38.351Z,10.93
2023-05-22T00:42:40.047Z,10.23
2023-05-22T00:43:41.706Z,9.27
2023-05-22T00:44:43.393Z,9.80
2023-05-22T00:45:45.051Z,10.27
2023-05-22T00:46:46.853Z,9.63
2023-05-22T00:47:49.175Z,11.57
2023-05-22T00:48:51.792Z,10.48
2023-05-22T00:54:00.218Z,9.90
2023-05-22T00:55:01.909Z,9.55
2023-05-22T00:56:03.650Z,9.68
2023-05-22T00:57:05.514Z,8.57
2023-05-22T00:58:07.914Z,10.82
2023-05-22T00:59:09.573Z,9.85
2023-05-22T01:00:11.739Z,11.15
2023-05-22T01:01:13.442Z,10.93
2023-05-22T01:02:15.633Z,11.40
2023-05-22T01:03:17.540Z,11.68
2023-05-22T01:04:19.261Z,10.88
2023-05-22T01:05:22.929Z,11.77
2023-05-22T01:06:24.610Z,10.43
2023-05-22T01:07:26.299Z,9.05
2023-05-22T01:08:27.975Z,11.25
2023-05-22T01:09:30.033Z,11.55
2023-05-22T01:10:31.710Z,9.15
2023-05-22T01:11:59.547Z,10.77
2023-05-22T01:13:05.170Z,9.20
2023-05-22T01:14:29.628Z,9.90
2023-05-22T01:15:40.285Z,11.63
2023-05-22T01:16:55.468Z,9.95
2023-05-22T01:18:19.284Z,12.50
2023-05-22T01:19:35.865Z,9.77
2023-05-22T01:20:40.975Z,12.95
2023-05-22T01:22:06.075Z,9.20
2023-05-22T01:24:32.923Z,12.38
2023-05-22T01:26:03.438Z,9.95
2023-05-22T01:27:13.860Z,11.88
2023-05-22T01:29:44.331Z,10.18
2023-05-22T01:30:55.188Z,9.43
2023-05-22T01:31:57.801Z,8.73
2023-05-22T01:32:59.573Z,10.00
2023-05-22T01:34:01.395Z,8.75
2023-05-22T01:35:05.533Z,9.77
2023-05-22T01:36:07.399Z,9.98
2023-05-22T01:37:09.075Z,10.43
2023-05-22T01:38:10.778Z,10.75
2023-05-22T01:39:12.438Z,10.57
2023-05-22T01:40:14.195Z,11.52
2023-05-22T01:41:15.858Z,9.77
2023-05-22T01:42:18.148Z,14.98
2023-05-22T01:43:19.912Z,10.50
2023-05-22T01:44:21.595Z,10.98
2023-05-22T01:45:23.483Z,11.73
2023-05-22T01:46:26.697Z,12.45
2023-05-22T01:47:28.505Z,11.23
2023-05-22T01:48:30.189Z,10.32
2023-05-22T01:49:33.061Z,11.93
2023-05-22T01:50:34.743Z,10.75
2023-05-22T01:51:47.676Z,11.18
2023-05-22T01:53:09.172Z,11.88
2023-05-22T01:54:16.323Z,10.93
2023-05-22T01:55:24.717Z,10.48
2023-05-22T01:56:31.220Z,11.20
2023-05-22T01:57:57.452Z,11.05
2023-05-22T02:00:14.882Z,11.73
2023-05-22T02:01:19.649Z,11.35
2023-05-22T02:02:21.743Z,11.25
2023-05-22T02:04:26.718Z,11.52
2023-05-22T02:05:28.380Z,11.43
2023-05-22T02:06:30.029Z,13.00
2023-05-22T02:07:32.908Z,10.52
2023-05-22T02:08:35.826Z,11.88
2023-05-22T02:09:37.755Z,11.50
2023-05-22T02:10:39.721Z,12.18
2023-05-22T02:11:45.027Z,10.82
2023-05-22T02:12:46.673Z,15.95
2023-05-22T02:13:48.885Z,13.52
2023-05-22T02:14:50.556Z,11.63
2023-05-22T02:15:52.342Z,10.65
2023-05-22T02:16:54.043Z,11.52
2023-05-22T02:17:55.762Z,10.70
2023-05-22T02:19:01.128Z,10.25
2023-05-22T02:20:02.844Z,18.33
2023-05-22T02:21:04.715Z,10.60
2023-05-22T02:22:07.028Z,10.38
2023-05-22T02:23:11.496Z,10.20
2023-05-22T02:24:13.173Z,11.48
2023-05-22T02:25:16.103Z,11.18
2023-05-22T02:26:18.794Z,11.07
2023-05-22T02:27:20.593Z,11.93
2023-05-22T02:28:22.254Z,9.80
2023-05-22T02:29:24.549Z,13.02
2023-05-22T02:30:26.403Z,11.93
2023-05-22T02:31:29.451Z,12.80
2023-05-22T02:32:31.882Z,12.77
2023-05-22T02:33:33.540Z,11.63
2023-05-22T02:34:35.223Z,10.63
2023-05-22T02:35:36.934Z,9.68
2023-05-22T02:36:38.906Z,12.38
2023-05-22T02:37:40.610Z,12.15
2023-05-22T02:38:42.528Z,10.85
2023-05-22T02:39:44.207Z,12.73
2023-05-22T02:40:46.172Z,11.68
2023-05-22T02:41:47.837Z,11.85
2023-05-22T02:42:49.808Z,12.73
2023-05-22T02:43:52.281Z,10.88
2023-05-22T02:44:53.981Z,12.55
2023-05-22T02:45:55.696Z,11.25
2023-05-22T02:46:57.480Z,12.75
2023-05-22T02:47:59.209Z,10.57
2023-05-22T02:49:01.415Z,12.18
2023-05-22T02:50:03.098Z,11.90
2023-05-22T02:51:05.844Z,10.20
2023-05-22T02:52:07.488Z,12.55
2023-05-22T02:53:09.141Z,11.57
2023-05-22T02:54:10.896Z,13.45
2023-05-22T02:55:12.777Z,11.23
2023-05-22T02:56:14.454Z,9.88
2023-05-22T02:57:18.886Z,11.57
2023-05-22T02:58:20.569Z,11.75
2023-05-22T02:59:22.250Z,11.75
2023-05-22T03:00:23.937Z,10.57
2023-05-22T03:01:25.747Z,9.77
2023-05-22T03:02:27.559Z,11.77
2023-05-22T03:03:29.691Z,11.73
2023-05-22T03:05:33.414Z,10.55
2023-05-22T03:07:36.556Z,10.82
2023-05-22T03:08:38.297Z,13.15
2023-05-22T03:09:39.972Z,11.70
2023-05-22T03:10:42.212Z,12.20
2023-05-22T03:11:43.894Z,10.10
2023-05-22T03:12:45.558Z,12.73
2023-05-22T03:13:47.250Z,10.73
2023-05-22T03:14:49.027Z,10.93
2023-05-22T03:15:50.935Z,9.88
2023-05-22T03:17:54.496Z,11.32
2023-05-22T03:19:12.144Z,10.18
2023-05-22T03:20:14.151Z,11.52
2023-05-22T03:21:15.827Z,10.60
2023-05-22T03:22:17.542Z,11.00
2023-05-22T03:23:20.566Z,10.80
2023-05-22T03:24:22.325Z,9.65
2023-05-22T03:25:24.055Z,10.85
2023-05-22T03:26:25.827Z,11.23
2023-05-22T03:27:27.647Z,11.50
2023-05-22T03:28:29.873Z,9.85
2023-05-22T03:29:31.620Z,10.07
2023-05-22T03:30:33.817Z,12.25
2023-05-22T03:31:47.388Z,10.85
2023-05-22T03:32:49.961Z,10.43
2023-05-22T03:33:54.916Z,10.90
2023-05-22T03:34:57.001Z,12.15
2023-05-22T03:35:58.669Z,10.93
2023-05-22T03:37:00.333Z,11.45
2023-05-22T03:38:02.577Z,10.23
2023-05-22T03:39:04.437Z,14.05
2023-05-22T03:40:10.612Z,8.75
2023-05-22T03:41:12.326Z,10.88
2023-05-22T03:42:14.021Z,10.50
2023-05-22T03:43:15.725Z,11.43
2023-05-22T03:44:17.407Z,10.98
2023-05-22T03:45:19.180Z,9.90
2023-05-22T03:46:22.114Z,10.77
2023-05-22T03:47:23.896Z,10.70
2023-05-22T03:48:26.239Z,11.25
2023-05-22T03:49:27.962Z,10.23
2023-05-22T03:50:29.677Z,9.68
2023-05-22T03:51:31.357Z,12.82
2023-05-22T03:52:33.021Z,10.55
2023-05-22T03:53:34.722Z,9.32
2023-05-22T03:54:36.373Z,9.55
2023-05-22T03:55:38.830Z,9.77
2023-05-22T03:56:40.568Z,10.85
2023-05-22T03:57:43.034Z,10.60
2023-05-22T03:58:44.718Z,10.15
2023-05-22T03:59:46.568Z,12.13
2023-05-22T04:00:48.236Z,10.43
2023-05-22T04:01:49.969Z,11.35
2023-05-22T04:02:52.850Z,11.45
2023-05-22T04:03:54.594Z,9.63
2023-05-22T04:04:56.313Z,11.60
2023-05-22T04:05:58.829Z,11.25
2023-05-22T04:07:00.571Z,11.00
2023-05-22T04:08:02.220Z,12.35
2023-05-22T04:09:03.943Z,9.35
2023-05-22T04:10:05.991Z,11.40
2023-05-22T04:11:07.703Z,10.15
2023-05-22T04:12:09.622Z,11.73
2023-05-22T04:13:11.279Z,9.93
2023-05-22T04:14:14.760Z,9.07
2023-05-22T04:15:16.554Z,9.95
2023-05-22T04:16:18.589Z,12.32
2023-05-22T04:17:20.333Z,10.30
2023-05-22T04:18:21.980Z,10.68
2023-05-22T04:19:23.681Z,9.90
2023-05-22T04:20:25.397Z,11.65
2023-05-22T04:21:27.503Z,10.38
2023-05-22T04:22:29.166Z,12.57
2023-05-22T04:23:30.829Z,11.82
2023-05-22T04:24:32.503Z,11.18
2023-05-22T04:25:34.604Z,10.45
2023-05-22T04:26:36.506Z,10.18
2023-05-22T04:27:38.241Z,11.35
2023-05-22T04:28:39.900Z,10.57
2023-05-22T04:29:41.580Z,14.40
2023-05-22T04:30:44.115Z,10.18
2023-05-22T04:31:45.827Z,12.98
2023-05-22T04:32:47.703Z,12.85
2023-05-22T04:33:49.864Z,10.45
2023-05-22T04:35:53.141Z,12.63
2023-05-22T04:36:54.797Z,13.07
2023-05-22T04:37:59.404Z,10.90
2023-05-22T04:39:01.086Z,11.52
2023-05-22T04:40:02.816Z,10.70
2023-05-22T04:41:04.553Z,11.02
2023-05-22T04:42:06.183Z,15.55
2023-05-22T04:43:08.000Z,14.48
2023-05-22T04:44:09.672Z,11.38
2023-05-22T04:45:11.539Z,22.13
2023-05-22T04:46:13.461Z,15.73
2023-05-22T04:47:15.164Z,18.77
2023-05-22T04:48:16.847Z,15.13
2023-05-22T04:49:18.524Z,13.48
2023-05-22T04:50:20.645Z,14.77
2023-05-22T04:52:24.423Z,13.55
2023-05-22T04:53:26.139Z,10.20
2023-05-22T04:54:28.006Z,10.70
2023-05-22T04:56:36.829Z,12.32
2023-05-22T04:57:40.129Z,10.95
2023-05-22T04:58:42.665Z,9.50
2023-05-22T04:59:44.326Z,10.30
2023-05-22T05:00:46.037Z,10.75
2023-05-22T05:01:47.750Z,13.23
2023-05-22T05:02:49.440Z,11.05
2023-05-22T05:03:53.326Z,11.95
2023-05-22T05:04:55.071Z,13.63
2023-05-22T05:05:56.751Z,10.63
2023-05-22T05:06:58.496Z,8.80
2023-05-22T05:08:00.175Z,10.57
2023-05-22T05:09:01.827Z,10.43
2023-05-22T05:10:04.404Z,10.43
2023-05-22T05:11:06.125Z,10.68
2023-05-22T05:12:07.881Z,11.25
2023-05-22T05:13:10.455Z,10.73
2023-05-22T05:14:13.978Z,10.68
2023-05-22T05:16:17.197Z,9.88
2023-05-22T05:17:18.883Z,10.40
2023-05-22T05:18:20.555Z,10.38
2023-05-22T05:19:22.974Z,9.35
2023-05-22T05:20:24.744Z,9.50
2023-05-22T05:21:26.432Z,12.13
2023-05-22T05:22:28.155Z,11.18
2023-05-22T05:23:29.855Z,9.93
2023-05-22T05:24:31.639Z,9.63
2023-05-22T05:25:33.346Z,10.50
2023-05-22T05:26:35.123Z,11.00
2023-05-22T05:27:37.471Z,10.25
2023-05-22T05:28:39.646Z,117.37
2023-05-22T05:29:42.457Z,10.57
2023-05-22T05:30:52.223Z,8.93
2023-05-22T05:32:23.152Z,10.35
2023-05-22T05:33:34.695Z,9.25
2023-05-22T05:34:43.343Z,10.13
2023-05-22T05:37:15.889Z,12.82
2023-05-22T05:38:18.826Z,10.05
2023-05-22T05:43:37.292Z,8.05
2023-05-22T05:44:41.932Z,11.27
2023-05-22T05:45:43.722Z,11.13
2023-05-22T05:46:45.546Z,11.15
2023-05-22T05:47:49.129Z,10.20
2023-05-22T05:49:54.428Z,13.35
2023-05-22T05:50:57.092Z,11.23
2023-05-22T05:55:04.757Z,9.60
2023-05-22T05:56:08.001Z,10.40
2023-05-22T05:57:10.510Z,10.57
2023-05-22T05:58:12.269Z,10.82
2023-05-22T05:59:20.246Z,10.57
2023-05-22T06:00:53.722Z,16.23
2023-05-22T06:01:55.476Z,9.63
2023-05-22T06:03:01.865Z,10.18
2023-05-22T06:04:18.616Z,7.90
2023-05-22T06:05:22.668Z,9.23
2023-05-22T06:06:30.543Z,9.48
2023-05-22T06:07:52.725Z,10.63
2023-05-22T06:08:54.532Z,8.48
2023-05-22T06:10:02.476Z,10.73
2023-05-22T06:11:13.590Z,9.27
2023-05-22T06:12:25.462Z,8.15
2023-05-22T06:13:28.288Z,17.23
2023-05-22T06:14:30.352Z,9.85
2023-05-22T06:30:00.188Z,8.57
2023-05-22T06:31:05.669Z,8.32
2023-05-22T06:32:08.140Z,7.55
2023-05-22T06:33:11.855Z,10.00
2023-05-22T06:34:17.807Z,9.95
2023-05-22T06:35:19.566Z,8.57
2023-05-22T06:36:22.487Z,13.63
2023-05-22T06:37:24.159Z,11.43
2023-05-22T06:38:27.099Z,11.48
2023-05-22T06:39:29.896Z,13.20
2023-05-22T06:40:48.491Z,9.82
2023-05-22T06:41:58.736Z,10.35
2023-05-22T06:43:01.050Z,11.85
2023-05-22T06:44:02.721Z,10.55
2023-05-22T06:45:05.717Z,9.18
2023-05-22T06:46:16.490Z,12.77
2023-05-22T06:47:26.709Z,14.98
2023-05-22T06:48:34.221Z,10.75
2023-05-22T06:49:56.825Z,12.85
2023-05-22T06:50:58.517Z,11.30
2023-05-22T06:52:02.251Z,11.50
2023-05-22T06:53:05.784Z,9.10
2023-05-22T06:54:07.501Z,12.75
2023-05-22T06:55:11.139Z,10.05
2023-05-22T06:56:25.225Z,8.48
2023-05-22T06:57:39.071Z,8.82
2023-05-22T06:58:40.785Z,12.13
2023-05-22T06:59:42.491Z,9.63
2023-05-22T07:01:06.945Z,10.77
2023-05-22T07:02:14.356Z,8.63
2023-05-22T07:04:54.226Z,9.65
2023-05-22T07:06:06.473Z,7.28
2023-05-22T07:07:08.591Z,8.18
2023-05-22T07:08:10.260Z,10.82
2023-05-22T07:09:12.927Z,7.47
2023-05-22T07:10:14.709Z,6.90
2023-05-22T07:11:16.459Z,8.57
2023-05-22T07:12:18.139Z,27.42
2023-05-22T07:14:21.701Z,555.45
2023-05-22T07:15:23.328Z,531.00
2023-05-22T07:16:28.018Z,355.95
2023-05-22T07:17:30.128Z,534.10
2023-05-22T07:18:32.465Z,608.60
2023-05-22T07:19:34.338Z,459.90
2023-05-22T07:20:38.354Z,522.57
2023-05-22T07:21:58.463Z,539.17
2023-05-22T07:23:00.688Z,519.40
2023-05-22T07:24:02.843Z,529.60
2023-05-22T07:25:04.935Z,526.60
2023-05-22T07:26:07.733Z,529.25
2023-05-22T07:34:45.183Z,453.07
2023-05-22T07:35:47.217Z,520.80
2023-05-22T07:36:49.329Z,537.30
2023-05-22T07:43:01.882Z,432.30
2023-05-22T07:44:03.495Z,521.70
2023-05-22T07:47:22.031Z,311.70
2023-05-22T07:48:24.590Z,478.20
2023-05-22T07:55:47.492Z,437.10
2023-05-22T07:56:49.329Z,1356.95
2023-05-22T07:57:52.704Z,210.53
2023-05-22T07:59:02.935Z,142.10
2023-05-22T08:00:04.768Z,710.20
2023-05-22T08:03:17.528Z,455.90
2023-05-22T08:04:19.697Z,626.30
2023-05-22T08:07:24.521Z,957.40
2023-05-22T08:08:26.199Z,8.70
2023-05-22T08:11:48.681Z,505.83
2023-05-22T08:12:50.335Z,501.50
2023-05-22T08:25:15.495Z,500.33
2023-05-22T08:48:56.482Z,486.00
2023-05-22T08:58:22.414Z,417.70
2023-05-22T09:00:25.648Z,871.30
2023-05-22T09:01:28.753Z,525.10
2023-05-22T09:02:31.166Z,538.25
2023-05-22T09:03:33.025Z,537.00
2023-05-22T09:04:35.159Z,527.00
2023-05-22T09:05:36.789Z,520.90
2023-05-22T09:06:38.440Z,519.50
2023-05-22T09:07:40.072Z,504.00
2023-05-22T09:09:43.235Z,502.45
2023-05-22T09:10:45.090Z,516.05
2023-05-22T09:11:46.740Z,523.30
2023-05-22T09:19:23.093Z,517.60
2023-05-22T09:33:58.511Z,514.17
2023-05-22T09:35:03.548Z,505.45
2023-05-22T09:36:05.667Z,517.25
2023-05-22T09:37:07.298Z,536.90
2023-05-22T09:41:22.382Z,340.65
2023-05-22T09:45:29.308Z,487.30
2023-05-22T09:47:32.693Z,482.50
2023-05-22T09:48:34.969Z,528.90
2023-05-22T09:49:45.526Z,520.37
2023-05-22T09:50:47.915Z,511.40
2023-05-22T09:51:49.640Z,513.50
2023-05-22T09:53:53.631Z,489.60
2023-05-22T09:55:57.399Z,471.70
2023-05-22T09:58:03.951Z,489.53
2023-05-22T10:07:24.613Z,510.80
2023-05-22T10:13:39.530Z,441.70
2023-05-22T11:01:38.297Z,279.50
2023-05-22T11:05:30.576Z,6.85
2023-05-22T11:10:55.038Z,11.43
2023-05-22T11:13:13.450Z,1175.15
2023-05-22T11:14:18.611Z,7.10
2023-05-22T11:15:30.540Z,6.47
2023-05-22T11:16:34.929Z,5.95
2023-05-22T11:17:39.608Z,6.45
2023-05-22T11:18:41.394Z,5.70
2023-05-22T11:19:43.299Z,5.88
2023-05-22T11:20:44.982Z,6.38
2023-05-22T11:21:46.770Z,6.65
2023-05-22T11:23:01.103Z,7.70
2023-05-22T11:24:02.779Z,5.07
2023-05-22T11:25:08.802Z,6.03
2023-05-22T11:26:28.345Z,7.43
2023-05-22T11:27:29.989Z,5.80
2023-05-22T11:28:31.641Z,8.70
2023-05-22T11:29:33.404Z,7.30
2023-05-22T11:30:35.173Z,9.57
2023-05-22T11:31:36.965Z,5.82
2023-05-22T11:32:39.429Z,5.53
2023-05-22T11:33:41.152Z,5.40
2023-05-22T11:34:43.342Z,7.82
2023-05-22T11:35:45.154Z,4.30
2023-05-22T12:07:10.682Z,58.85
2023-05-22T12:12:19.960Z,1539.90
2023-05-22T12:14:31.538Z,1744.45
2023-05-22T12:15:33.191Z,505.40
2023-05-22T12:17:39.742Z,507.50
2023-05-22T12:18:41.406Z,530.90
2023-05-22T12:19:46.100Z,517.10
2023-05-22T12:21:50.694Z,315.60
2023-05-22T12:22:52.379Z,578.60
2023-05-22T12:24:55.500Z,359.60
2023-05-22T12:32:13.947Z,6.13
2023-05-22T12:33:15.793Z,7.35
2023-05-22T12:34:17.733Z,6.65
2023-05-22T12:35:19.556Z,6.05
2023-05-22T12:36:21.596Z,8.05
2023-05-22T12:37:23.911Z,281.30
2023-05-22T12:40:38.066Z,552.55
2023-05-22T12:41:39.888Z,535.00
2023-05-22T12:44:45.647Z,494.10
2023-05-22T12:45:49.881Z,6.97
2023-05-22T12:46:52.307Z,475.20
2023-05-22T12:56:09.170Z,469.10
2023-05-22T13:07:25.929Z,505.60
2023-05-22T13:09:29.040Z,487.70
2023-05-22T13:11:32.274Z,505.60
2023-05-22T13:37:11.672Z,813.00
2023-05-22T13:38:13.357Z,528.30
2023-05-22T13:51:33.273Z,504.40
2023-05-22T13:52:34.911Z,519.40
2023-05-22T13:53:36.584Z,414.20
2023-05-22T13:54:38.245Z,12.93
2023-05-22T13:55:40.055Z,34.73
2023-05-22T13:57:43.284Z,545.95
2023-05-22T13:58:44.937Z,556.15
2023-05-22T13:59:46.586Z,512.65
2023-05-22T14:00:48.297Z,558.53
2023-05-22T14:01:50.247Z,553.27
2023-05-22T14:02:52.089Z,536.80
2023-05-22T14:03:54.082Z,532.70
2023-05-22T14:04:55.870Z,498.90
2023-05-22T14:42:10.365Z,436.00
2023-05-22T14:43:12.103Z,527.10
2023-05-22T14:44:13.800Z,454.10
